Time;durP1;ratioP1;P1;durP2;ratioP2;P2;SDS_P1;SDS_P2;PMS_P1;PMS_P2;Temp;Humidity;BMP_temperature;BMP_pressure;BME280_temperature;BME280_humidity;BME280_pressure;Samples;Min_cycle;Max_cycle;Signal;HPM_P1;HPM_P2
2021/10/24 00:01:24;;;;;;;19.17;9.68;;;;;;;4.55;84.93;101571.30;1784569;80;20992;-84
2021/10/24 00:03:50;;;;;;;16.93;9.83;;;;;;;4.52;84.96;101574.86;1769567;80;20986;-84
2021/10/24 00:06:16;;;;;;;22.30;10.50;;;;;;;4.51;85.05;101576.19;1763908;80;21009;-85
2021/10/24 00:08:42;;;;;;;20.57;9.40;;;;;;;4.52;85.07;101577.47;1763964;81;21010;-85
2021/10/24 00:11:08;;;;;;;20.45;10.25;;;;;;;4.52;85.07;101572.70;1714754;83;21050;-85
2021/10/24 00:13:34;;;;;;;17.20;8.75;;;;;;;4.50;85.06;101578.41;1764090;80;21496;-85
2021/10/24 00:16:01;;;;;;;19.60;9.85;;;;;;;4.49;85.17;101575.39;1763677;81;20981;-84
2021/10/24 00:18:27;;;;;;;16.70;9.50;;;;;;;4.47;85.18;101583.26;1780567;80;21021;-85
2021/10/24 00:20:53;;;;;;;21.80;10.25;;;;;;;4.48;85.32;101588.92;1758052;80;21009;-85
2021/10/24 00:23:20;;;;;;;24.45;9.60;;;;;;;4.45;85.41;101589.00;1748367;82;21471;-85
2021/10/24 00:25:46;;;;;;;20.90;8.35;;;;;;;4.48;85.39;101595.91;1748271;82;21021;-84
2021/10/24 00:28:12;;;;;;;18.05;8.78;;;;;;;4.46;85.12;101586.33;1748340;82;22173;-84
2021/10/24 00:30:38;;;;;;;16.60;9.30;;;;;;;4.48;85.23;101594.59;1776905;80;20949;-84
2021/10/24 00:33:06;;;;;;;17.02;9.75;;;;;;;4.48;85.20;101588.92;1764772;80;21022;-84
2021/10/24 00:35:32;;;;;;;18.82;8.43;;;;;;;4.48;84.93;101594.14;1763339;81;21420;-84
2021/10/24 00:37:59;;;;;;;14.43;8.15;;;;;;;4.46;84.76;101601.16;1768002;80;20962;-84
2021/10/24 00:40:25;;;;;;;22.52;11.40;;;;;;;4.46;84.92;101599.85;1710057;83;20994;-85
2021/10/24 00:42:53;;;;;;;25.15;11.18;;;;;;;4.43;84.92;101602.09;1719172;83;21030;-84
2021/10/24 00:45:23;;;;;;;22.58;9.53;;;;;;;4.42;84.83;101601.69;1716999;82;20989;-84
2021/10/24 00:47:49;;;;;;;20.57;11.10;;;;;;;4.39;84.78;101606.14;1718940;82;21057;-84
2021/10/24 00:50:16;;;;;;;17.85;9.95;;;;;;;4.37;84.82;101595.72;1721545;83;20981;-84
2021/10/24 00:52:43;;;;;;;20.05;10.65;;;;;;;4.36;84.75;101603.61;1713604;83;21001;-84
2021/10/24 00:55:10;;;;;;;19.90;10.68;;;;;;;4.33;84.50;101596.70;1716954;82;21021;-84
2021/10/24 00:57:36;;;;;;;21.60;10.75;;;;;;;4.29;84.47;101598.14;1716904;83;21444;-84
2021/10/24 01:00:07;;;;;;;20.00;10.45;;;;;;;4.23;84.35;101592.16;1724206;83;20977;-84
2021/10/24 01:02:35;;;;;;;21.27;11.48;;;;;;;4.20;84.28;101595.31;1729138;83;21468;-84
2021/10/24 01:05:02;;;;;;;43.35;22.52;;;;;;;4.16;84.09;101590.61;1725295;83;21065;-84
2021/10/24 01:07:29;;;;;;;37.78;20.50;;;;;;;4.15;83.95;101594.59;1716532;83;21097;-84
2021/10/24 01:09:55;;;;;;;52.90;29.25;;;;;;;4.10;83.91;101596.45;1717062;82;20962;-84
2021/10/24 01:12:21;;;;;;;46.02;26.27;;;;;;;4.06;83.70;101591.75;1716942;83;20997;-84
2021/10/24 01:14:47;;;;;;;44.45;25.88;;;;;;;4.00;83.46;101596.67;1719939;83;20977;-84
2021/10/24 01:17:13;;;;;;;97.45;42.23;;;;;;;3.95;83.53;101591.17;1729133;83;21112;-84
2021/10/24 01:19:40;;;;;;;65.85;36.58;;;;;;;3.90;83.45;101596.49;1729212;83;21036;-84
2021/10/24 01:22:06;;;;;;;75.62;38.75;;;;;;;3.82;83.29;101596.26;1719977;83;20994;-84
2021/10/24 01:24:32;;;;;;;78.05;42.67;;;;;;;3.74;83.19;101597.31;1717266;82;21033;-84
2021/10/24 01:26:59;;;;;;;69.80;36.00;;;;;;;3.66;83.31;101590.13;1716789;83;21487;-84
2021/10/24 01:29:26;;;;;;;52.27;30.32;;;;;;;3.61;83.25;101591.12;1718512;82;21033;-84
2021/10/24 01:31:53;;;;;;;52.95;29.80;;;;;;;3.57;83.12;101594.70;1727959;83;20989;-84
2021/10/24 01:34:21;;;;;;;52.43;27.52;;;;;;;3.50;83.09;101594.84;1717044;82;21041;-84
2021/10/24 01:36:48;;;;;;;39.15;24.00;;;;;;;3.43;83.08;101591.97;1716905;82;21469;-84
2021/10/24 01:39:14;;;;;;;46.77;23.90;;;;;;;3.40;82.97;101591.18;1717090;83;21037;-84
2021/10/24 01:41:41;;;;;;;45.63;24.55;;;;;;;3.35;82.87;101594.33;1728500;83;21065;-84
2021/10/24 01:44:07;;;;;;;40.15;23.12;;;;;;;3.29;82.85;101587.48;1718575;83;21436;-84
2021/10/24 01:46:33;;;;;;;24.25;14.07;;;;;;;3.25;82.86;101598.44;1704756;83;21044;-84
2021/10/24 01:48:59;;;;;;;21.12;12.63;;;;;;;3.20;82.71;101596.84;1716949;82;21457;-84
2021/10/24 01:51:25;;;;;;;22.35;12.75;;;;;;;3.12;82.66;101591.77;1717652;83;21071;-84
2021/10/24 01:53:52;;;;;;;28.85;17.00;;;;;;;3.05;82.59;101600.63;1717040;82;21050;-84
2021/10/24 01:56:18;;;;;;;32.30;19.40;;;;;;;2.98;82.74;101592.52;1716873;82;21476;-84
2021/10/24 01:58:45;;;;;;;27.30;17.10;;;;;;;2.90;82.99;101597.05;1722164;82;21001;-84
2021/10/24 02:01:11;;;;;;;27.90;16.30;;;;;;;2.85;83.47;101591.91;1716791;83;21528;-84
2021/10/24 02:03:37;;;;;;;29.55;17.50;;;;;;;2.84;83.74;101590.66;1726038;83;21009;-84
2021/10/24 02:06:05;;;;;;;33.02;20.75;;;;;;;2.82;83.60;101588.91;1728845;83;21470;-84
2021/10/24 02:08:31;;;;;;;38.13;23.18;;;;;;;2.81;83.54;101602.00;1725828;83;21487;-84
2021/10/24 02:10:59;;;;;;;32.88;22.50;;;;;;;2.76;83.49;101599.91;1716843;83;21061;-84
2021/10/24 02:13:25;;;;;;;36.45;22.55;;;;;;;2.74;83.42;101600.41;1717089;82;21041;-84
2021/10/24 02:15:51;;;;;;;32.08;23.57;;;;;;;2.72;83.67;101610.84;1723596;83;21013;-84
2021/10/24 02:18:17;;;;;;;34.30;22.77;;;;;;;2.71;83.81;101607.83;1719739;83;21010;-84
2021/10/24 02:20:43;;;;;;;34.90;22.52;;;;;;;2.70;83.66;101611.34;1716818;83;21001;-84
2021/10/24 02:23:09;;;;;;;37.13;23.85;;;;;;;2.68;83.71;101606.59;1718104;83;21496;-85
2021/10/24 02:25:38;;;;;;;35.15;23.87;;;;;;;2.66;83.72;101598.38;1722068;83;21026;-84
2021/10/24 02:28:04;;;;;;;32.55;23.32;;;;;;;2.66;83.87;101599.23;1716889;82;21033;-84
2021/10/24 02:30:31;;;;;;;33.70;23.02;;;;;;;2.63;83.61;101600.59;1716867;82;20998;-84
2021/10/24 02:32:57;;;;;;;31.15;21.52;;;;;;;2.61;83.39;101601.53;1721804;82;20990;-84
2021/10/24 02:35:25;;;;;;;34.25;22.50;;;;;;;2.55;83.40;101602.05;1715307;83;21024;-84
2021/10/24 02:37:52;;;;;;;39.05;24.20;;;;;;;2.52;83.39;101606.47;1728456;83;21104;-84
2021/10/24 02:40:18;;;;;;;37.75;24.72;;;;;;;2.49;83.29;101610.43;1734600;83;21017;-84
2021/10/24 02:42:44;;;;;;;35.33;22.80;;;;;;;2.46;83.30;101610.48;1732339;83;21005;-84
2021/10/24 02:45:11;;;;;;;34.00;22.62;;;;;;;2.42;83.21;101615.34;1716888;83;21065;-84
2021/10/24 02:47:39;;;;;;;35.92;22.95;;;;;;;2.37;83.19;101621.06;1717270;82;20979;-84
2021/10/24 02:50:07;;;;;;;34.53;21.15;;;;;;;2.33;83.23;101621.12;1716890;82;21670;-84
2021/10/24 02:52:33;;;;;;;39.05;23.95;;;;;;;2.31;83.28;101618.15;1716830;83;21041;-84
2021/10/24 02:54:59;;;;;;;29.42;20.77;;;;;;;2.29;83.31;101622.52;1716896;82;21508;-84
2021/10/24 02:57:25;;;;;;;29.60;21.37;;;;;;;2.23;83.26;101622.62;1716931;83;21316;-84
2021/10/24 02:59:51;;;;;;;37.30;22.42;;;;;;;2.21;83.25;101629.62;1717126;82;21492;-84
2021/10/24 03:02:17;;;;;;;31.87;21.80;;;;;;;2.19;83.45;101628.33;1716789;83;20998;-84
2021/10/24 03:04:43;;;;;;;33.58;22.73;;;;;;;2.17;83.41;101627.93;1716951;83;21484;-84
2021/10/24 03:07:09;;;;;;;36.90;22.48;;;;;;;2.13;83.39;101637.54;1716856;83;21077;-84
2021/10/24 03:09:35;;;;;;;33.70;22.77;;;;;;;2.07;83.39;101632.43;1717077;83;20994;-84
2021/10/24 03:12:01;;;;;;;36.65;24.80;;;;;;;2.04;83.32;101633.78;1716859;83;21009;-84
2021/10/24 03:14:27;;;;;;;38.15;23.07;;;;;;;2.02;83.41;101636.87;1717008;83;21061;-84
2021/10/24 03:16:53;;;;;;;30.60;22.52;;;;;;;1.98;83.44;101635.21;1703126;83;21077;-84
2021/10/24 03:19:20;;;;;;;36.08;23.40;;;;;;;1.94;83.52;101637.42;1700694;83;21021;-84
2021/10/24 03:21:46;;;;;;;37.60;23.70;;;;;;;1.90;83.52;101638.36;1716831;82;21571;-84
2021/10/24 03:24:12;;;;;;;30.82;22.60;;;;;;;1.86;83.38;101629.30;1716660;83;21048;-84
2021/10/24 03:26:38;;;;;;;35.33;24.50;;;;;;;1.86;83.48;101637.55;1716789;82;21005;-84
2021/10/24 03:29:04;;;;;;;33.88;24.63;;;;;;;1.81;83.31;101637.64;1709373;82;21041;-84
2021/10/24 03:31:31;;;;;;;36.05;23.92;;;;;;;1.76;83.17;101634.23;1726657;83;20961;-84
2021/10/24 03:33:57;;;;;;;37.88;24.12;;;;;;;1.74;83.37;101632.08;1729236;83;21006;-84
2021/10/24 03:36:23;;;;;;;34.25;22.80;;;;;;;1.68;83.40;101633.92;1724958;83;20993;-84
2021/10/24 03:38:50;;;;;;;37.85;23.70;;;;;;;1.62;83.43;101631.84;1717254;83;21013;-84
2021/10/24 03:41:16;;;;;;;34.15;23.85;;;;;;;1.57;83.46;101634.94;1716982;82;21005;-84
2021/10/24 03:43:42;;;;;;;32.08;21.05;;;;;;;1.52;83.47;101631.56;1717311;83;21018;-84
2021/10/24 03:46:08;;;;;;;34.30;22.77;;;;;;;1.51;83.61;101634.17;1716612;82;21065;-84
2021/10/24 03:48:34;;;;;;;36.63;23.98;;;;;;;1.46;83.59;101636.84;1723094;83;20988;-84
2021/10/24 03:51:00;;;;;;;37.63;22.87;;;;;;;1.42;83.65;101636.92;1729044;83;20981;-84
2021/10/24 03:53:26;;;;;;;35.65;23.52;;;;;;;1.39;83.63;101636.52;1729268;83;21539;-84
2021/10/24 03:55:52;;;;;;;33.10;22.20;;;;;;;1.36;83.73;101632.21;1717724;83;21010;-84
2021/10/24 03:58:18;;;;;;;37.30;25.15;;;;;;;1.35;83.84;101629.20;1717110;83;21484;-84
2021/10/24 04:00:45;;;;;;;43.33;24.18;;;;;;;1.33;83.82;101636.15;1717077;83;20978;-84
2021/10/24 04:03:11;;;;;;;33.83;23.10;;;;;;;1.30;83.81;101636.19;1717403;82;21005;-84
2021/10/24 04:05:38;;;;;;;36.83;24.10;;;;;;;1.27;83.66;101644.03;1717054;82;21017;-84
2021/10/24 04:08:05;;;;;;;44.23;28.67;;;;;;;1.23;83.67;101637.60;1717060;83;21005;-84
2021/10/24 04:10:31;;;;;;;44.95;26.35;;;;;;;1.16;83.70;101641.58;1717026;83;21052;-84
2021/10/24 04:12:58;;;;;;;50.08;30.15;;;;;;;1.12;83.60;101642.50;1717032;83;21480;-84
2021/10/24 04:15:25;;;;;;;51.15;28.27;;;;;;;1.08;83.68;101652.94;1717000;82;21001;-84
2021/10/24 04:17:51;;;;;;;53.95;27.60;;;;;;;1.04;83.83;101646.92;1717139;82;21033;-84
2021/10/24 04:20:22;;;;;;;54.80;28.02;;;;;;;1.03;83.87;101646.95;1717035;83;21472;-84
2021/10/24 04:22:50;;;;;;;50.78;30.15;;;;;;;0.99;83.74;101651.74;1717105;83;20993;-84
2021/10/24 04:25:16;;;;;;;49.03;28.62;;;;;;;0.96;83.69;101649.21;1710805;83;21033;-84
2021/10/24 04:27:43;;;;;;;50.95;29.37;;;;;;;0.91;83.83;101643.61;1716873;83;21070;-84
2021/10/24 04:30:11;;;;;;;44.03;27.48;;;;;;;0.89;83.93;101642.78;1715975;83;21017;-84
2021/10/24 04:32:40;;;;;;;45.40;26.60;;;;;;;0.86;83.92;101644.56;1700043;84;21014;-84
2021/10/24 04:35:07;;;;;;;45.03;27.67;;;;;;;0.84;84.07;101643.70;1700176;84;21503;-84
2021/10/24 04:37:33;;;;;;;55.85;31.05;;;;;;;0.83;84.18;101642.84;1706597;83;20958;-84
2021/10/24 04:39:59;;;;;;;51.05;30.57;;;;;;;0.82;84.18;101653.24;1700145;84;21536;-84
2021/10/24 04:42:25;;;;;;;58.95;32.42;;;;;;;0.77;84.16;101652.01;1707131;83;21057;-84
2021/10/24 04:44:51;;;;;;;52.45;29.10;;;;;;;0.74;84.16;101647.28;1717198;83;21110;-84
2021/10/24 04:47:17;;;;;;;57.65;32.03;;;;;;;0.70;84.23;101651.66;1717131;83;20970;-84
2021/10/24 04:49:43;;;;;;;51.65;31.50;;;;;;;0.70;84.33;101657.71;1717153;82;21503;-84
2021/10/24 04:52:09;;;;;;;54.10;32.10;;;;;;;0.70;84.41;101665.50;1716891;83;21109;-84
2021/10/24 04:54:36;;;;;;;56.92;32.13;;;;;;;0.70;84.38;101663.35;1717153;83;20998;-84
2021/10/24 04:57:03;;;;;;;59.48;32.73;;;;;;;0.69;84.48;101661.61;1716760;82;21057;-84
2021/10/24 04:59:29;;;;;;;56.00;34.35;;;;;;;0.66;84.54;101670.77;1717050;83;21017;-84
2021/10/24 05:01:55;;;;;;;47.70;29.10;;;;;;;0.62;84.61;101669.05;1717034;82;21480;-84
2021/10/24 05:04:21;;;;;;;42.13;26.20;;;;;;;0.54;84.41;101665.67;1717088;83;21026;-84
2021/10/24 05:06:47;;;;;;;48.02;27.75;;;;;;;0.50;84.55;101662.25;1717114;83;21026;-84
2021/10/24 05:09:13;;;;;;;53.45;29.27;;;;;;;0.45;84.69;101662.28;1728285;82;20966;-84
2021/10/24 05:11:39;;;;;;;52.23;28.77;;;;;;;0.44;84.88;101660.56;1725668;83;20950;-84
2021/10/24 05:14:07;;;;;;;57.35;31.25;;;;;;;0.43;84.87;101668.39;1717170;83;21483;-84
2021/10/24 05:16:34;;;;;;;59.67;32.03;;;;;;;0.42;85.04;101667.50;1716664;82;21073;-85
2021/10/24 05:19:00;;;;;;;71.10;42.90;;;;;;;0.42;85.01;101666.20;1717144;82;21006;-85
2021/10/24 05:21:26;;;;;;;69.77;41.05;;;;;;;0.43;85.08;101664.05;1714971;82;20997;-84
2021/10/24 05:23:53;;;;;;;65.55;38.90;;;;;;;0.41;85.02;101668.83;1716567;83;21487;-84
2021/10/24 05:26:19;;;;;;;68.10;41.60;;;;;;;0.38;84.87;101673.60;1716578;83;21473;-85
2021/10/24 05:28:45;;;;;;;74.65;44.33;;;;;;;0.37;84.86;101667.14;1708030;82;20990;-85
2021/10/24 05:31:11;;;;;;;70.90;44.00;;;;;;;0.37;84.85;101664.10;1700020;84;21013;-85
2021/10/24 05:33:37;;;;;;;67.47;39.35;;;;;;;0.38;84.99;101663.66;1700298;84;21008;-85
2021/10/24 05:36:04;;;;;;;64.32;35.75;;;;;;;0.33;84.98;101670.20;1724892;83;20985;-85
2021/10/24 05:38:30;;;;;;;58.50;35.10;;;;;;;0.28;84.93;101671.97;1729190;83;21081;-85
2021/10/24 05:40:56;;;;;;;62.67;34.18;;;;;;;0.27;84.88;101671.55;1729106;83;21495;-84
2021/10/24 05:43:22;;;;;;;53.68;29.85;;;;;;;0.25;85.02;101671.98;1719478;83;20981;-85
2021/10/24 05:45:49;;;;;;;56.70;30.48;;;;;;;0.22;84.90;101676.77;1717133;82;21001;-85
2021/10/24 05:48:15;;;;;;;53.40;29.27;;;;;;;0.17;84.99;101673.36;1716793;82;21398;-85
2021/10/24 05:50:43;;;;;;;56.95;32.25;;;;;;;0.16;85.22;101680.70;1717060;83;21009;-85
2021/10/24 05:53:09;;;;;;;58.73;32.90;;;;;;;0.17;85.31;101680.30;1717089;83;21041;-85
2021/10/24 05:55:36;;;;;;;61.90;36.08;;;;;;;0.20;85.44;101688.06;1712570;83;21551;-85
2021/10/24 05:58:03;;;;;;;62.00;35.20;;;;;;;0.21;85.37;101685.44;1706964;83;21001;-85
2021/10/24 06:00:30;;;;;;;69.05;39.55;;;;;;;0.20;85.12;101692.81;1699853;84;21055;-85
2021/10/24 06:02:56;;;;;;;65.60;35.23;;;;;;;0.19;85.41;101699.30;1706148;83;21028;-85
2021/10/24 06:05:22;;;;;;;65.42;34.80;;;;;;;0.19;85.58;101706.64;1716828;82;21512;-85
2021/10/24 06:07:49;;;;;;;72.47;40.95;;;;;;;0.20;85.65;101704.94;1717068;83;21024;-85
2021/10/24 06:10:17;;;;;;;82.82;42.17;;;;;;;0.22;85.80;101714.41;1717043;82;21081;-85
2021/10/24 06:12:46;;;;;;;69.72;37.60;;;;;;;0.29;85.86;101715.66;1716865;82;21026;-85
2021/10/24 06:15:15;;;;;;;101.78;42.75;;;;;;;0.30;85.60;101716.97;1716958;82;21496;-85
2021/10/24 06:17:44;;;;;;;116.82;47.93;;;;;;;0.32;85.83;101726.03;1717066;82;21017;-85
2021/10/24 06:20:11;;;;;;;71.92;31.25;;;;;;;0.35;85.77;101730.76;1716920;82;21053;-85
2021/10/24 06:22:39;;;;;;;66.35;33.95;;;;;;;0.38;86.07;101731.17;1717100;83;21017;-85
2021/10/24 06:25:07;;;;;;;45.52;24.72;;;;;;;0.40;86.09;101743.72;1716791;82;21018;-85
2021/10/24 06:27:41;;;;;;;39.45;20.72;;;;;;;0.43;86.35;101743.70;1716999;82;21005;-85
2021/10/24 06:30:11;;;;;;;33.33;20.70;;;;;;;0.49;86.59;101751.86;1717028;82;21069;-85
2021/10/24 06:32:38;;;;;;;31.87;20.25;;;;;;;0.51;86.51;101744.48;1710578;83;21040;-85
2021/10/24 06:35:05;;;;;;;33.53;20.48;;;;;;;0.54;86.57;101747.05;1728815;83;21512;-85
2021/10/24 06:37:41;;;;;;;31.62;18.48;;;;;;;0.56;86.13;101753.11;1714013;83;20989;-85
2021/10/24 06:40:09;;;;;;;29.32;16.73;;;;;;;0.59;86.25;101753.50;1699939;84;21060;-85
2021/10/24 06:42:36;;;;;;;29.87;19.20;;;;;;;0.62;86.23;101760.83;1710197;83;21041;-85
2021/10/24 06:45:06;;;;;;;23.20;14.73;;;;;;;0.66;86.64;101762.55;1700202;83;21061;-85
2021/10/24 06:47:34;;;;;;;37.28;20.45;;;;;;;0.70;86.41;101756.89;1730593;81;20987;-85
2021/10/24 06:50:00;;;;;;;36.10;18.67;;;;;;;0.72;86.59;101761.61;1760338;80;21045;-84
2021/10/24 06:52:27;;;;;;;38.23;21.27;;;;;;;0.74;86.75;101761.61;1752707;80;21293;-84
2021/10/24 06:54:53;;;;;;;34.48;19.10;;;;;;;0.76;86.59;101765.03;1750354;80;21487;-84
2021/10/24 06:57:21;;;;;;;29.18;15.18;;;;;;;0.81;87.16;101774.52;1748060;82;21005;-83
2021/10/24 06:59:46;;;;;;;27.70;16.27;;;;;;;0.86;87.14;101773.20;1754450;80;21472;-83
2021/10/24 07:02:12;;;;;;;22.65;13.43;;;;;;;0.89;86.98;101777.93;1793762;80;21005;-83
2021/10/24 07:04:38;;;;;;;24.92;13.28;;;;;;;0.97;87.43;101773.09;1772276;80;20977;-83
2021/10/24 07:07:05;;;;;;;22.25;14.30;;;;;;;1.03;87.26;101776.94;1765129;80;21001;-83
2021/10/24 07:09:31;;;;;;;24.32;13.98;;;;;;;1.07;87.51;101778.17;1764026;80;21009;-83
2021/10/24 07:11:58;;;;;;;21.55;13.15;;;;;;;1.14;87.82;101775.07;1762689;80;20998;-83
2021/10/24 07:14:24;;;;;;;20.48;13.60;;;;;;;1.21;87.89;101779.33;1748836;81;20954;-83
2021/10/24 07:16:51;;;;;;;27.52;18.40;;;;;;;1.28;87.92;101780.12;1756838;81;21456;-83
2021/10/24 07:19:17;;;;;;;39.83;23.65;;;;;;;1.33;87.81;101783.55;1778831;81;21068;-83
2021/10/24 07:21:43;;;;;;;31.73;18.82;;;;;;;1.38;87.84;101780.02;1778781;81;20970;-83
2021/10/24 07:24:09;;;;;;;26.42;16.32;;;;;;;1.44;87.66;101778.21;1757437;81;21025;-83
2021/10/24 07:26:35;;;;;;;24.27;16.62;;;;;;;1.47;87.83;101779.03;1777703;81;21005;-83
2021/10/24 07:29:02;;;;;;;20.05;12.40;;;;;;;1.52;88.07;101784.20;1778667;81;21076;-83
2021/10/24 07:31:29;;;;;;;23.10;15.00;;;;;;;1.58;88.25;101781.50;1778439;81;21413;-83
2021/10/24 07:33:55;;;;;;;28.83;20.05;;;;;;;1.64;88.26;101786.19;1778744;81;21092;-83
2021/10/24 07:36:21;;;;;;;34.90;21.95;;;;;;;1.71;88.60;101784.81;1778401;81;21005;-83
2021/10/24 07:38:47;;;;;;;30.52;17.12;;;;;;;1.77;88.46;101787.34;1779000;81;21495;-83
2021/10/24 07:41:13;;;;;;;35.85;20.62;;;;;;;1.82;88.50;101789.02;1778797;81;21447;-85
2021/10/24 07:43:39;;;;;;;27.62;15.38;;;;;;;1.86;88.90;101781.58;1778898;81;20985;-83
2021/10/24 07:46:06;;;;;;;27.40;15.53;;;;;;;1.95;89.15;101787.56;1779079;81;21065;-84
2021/10/24 07:48:33;;;;;;;26.12;14.90;;;;;;;2.02;89.15;101790.48;1778553;81;20982;-85
2021/10/24 07:51:01;;;;;;;22.52;14.03;;;;;;;2.08;89.46;101786.06;1778754;81;21616;-85
2021/10/24 07:53:29;;;;;;;24.50;14.13;;;;;;;2.16;89.66;101790.29;1778711;81;21483;-84
2021/10/24 07:55:56;;;;;;;24.57;14.00;;;;;;;2.23;90.18;101788.86;1764521;80;21480;-85
2021/10/24 07:58:24;;;;;;;26.35;15.18;;;;;;;2.33;90.33;101794.35;1771139;80;21026;-85
2021/10/24 08:00:50;;;;;;;25.25;15.23;;;;;;;2.42;90.38;101795.11;1774618;80;20941;-85
2021/10/24 08:03:19;;;;;;;27.42;18.75;;;;;;;2.52;90.77;101797.99;1750102;80;21446;-85
2021/10/24 08:05:45;;;;;;;26.85;18.27;;;;;;;2.59;90.77;101790.04;1752311;80;20978;-85
2021/10/24 08:08:11;;;;;;;26.55;18.40;;;;;;;2.69;91.07;101793.80;1749684;80;21007;-85
2021/10/24 08:10:37;;;;;;;28.52;17.50;;;;;;;2.80;91.23;101796.66;1750705;80;20989;-85
2021/10/24 08:13:03;;;;;;;28.20;17.32;;;;;;;2.91;91.69;101796.47;1754262;80;20958;-85
2021/10/24 08:15:30;;;;;;;28.07;15.60;;;;;;;3.05;92.08;101791.00;1756884;80;20977;-85
2021/10/24 08:17:56;;;;;;;28.65;17.02;;;;;;;3.17;91.95;101796.45;1756510;80;21009;-85
2021/10/24 08:20:22;;;;;;;32.17;21.20;;;;;;;3.30;92.10;101796.64;1754654;81;21466;-86
2021/10/24 08:22:49;;;;;;;29.02;19.48;;;;;;;3.43;92.31;101794.20;1748119;81;21011;-85
2021/10/24 08:25:16;;;;;;;25.75;16.30;;;;;;;3.55;91.93;101793.09;1763911;80;20942;-85
2021/10/24 08:27:44;;;;;;;20.25;14.07;;;;;;;3.68;92.49;101794.55;1763427;81;21046;-85
2021/10/24 08:30:12;;;;;;;23.70;15.38;;;;;;;3.82;92.35;101798.20;1763377;81;20986;-85
2021/10/24 08:32:38;;;;;;;25.68;14.90;;;;;;;3.97;92.80;101786.11;1763642;81;21025;-85
2021/10/24 08:35:07;;;;;;;20.43;13.30;;;;;;;4.12;92.97;101790.59;1759952;80;20973;-84
2021/10/24 08:37:35;;;;;;;24.87;15.43;;;;;;;4.27;92.68;101789.37;1755895;80;21499;-85
2021/10/24 08:40:05;;;;;;;23.07;13.95;;;;;;;4.41;92.93;101788.63;1764106;80;21556;-85
2021/10/24 08:42:32;;;;;;;27.05;15.80;;;;;;;4.56;93.85;101783.00;1755888;80;20958;-85
2021/10/24 08:45:00;;;;;;;25.08;16.50;;;;;;;4.73;96.00;101788.27;1759028;80;21518;-85
2021/10/24 08:47:27;;;;;;;31.95;18.20;;;;;;;4.87;95.80;101796.61;1755201;80;21484;-85
2021/10/24 08:49:54;;;;;;;38.73;18.25;;;;;;;5.03;96.46;101797.94;1757531;80;20986;-85
2021/10/24 08:52:22;;;;;;;36.38;21.80;;;;;;;5.18;96.47;101794.07;1757504;80;21027;-84
2021/10/24 08:54:53;;;;;;;38.00;23.02;;;;;;;5.32;96.83;101791.92;1755514;80;21414;-84
2021/10/24 08:57:29;;;;;;;42.53;22.95;;;;;;;5.49;97.42;101787.53;1761360;80;21080;-84
2021/10/24 08:59:59;;;;;;;36.65;21.97;;;;;;;5.68;97.58;101793.11;1758516;80;20993;-85
2021/10/24 09:02:55;;;;;;;28.57;19.85;;;;;;;5.85;97.47;101788.22;1753048;80;21321;-85
2021/10/24 09:05:40;;;;;;;42.38;23.65;;;;;;;5.97;96.80;101783.58;1758150;80;21047;-84
2021/10/24 09:08:22;;;;;;;33.15;21.52;;;;;;;6.09;96.45;101781.44;1754409;80;21769;-84
2021/10/24 09:10:59;;;;;;;39.48;24.37;;;;;;;6.25;96.20;101787.50;1758674;80;20986;-84
2021/10/24 09:13:32;;;;;;;33.55;20.77;;;;;;;6.40;95.20;101783.09;1757420;80;21673;-84
2021/10/24 09:16:04;;;;;;;58.75;26.90;;;;;;;6.57;94.80;101781.23;1761126;80;20988;-84
2021/10/24 09:18:38;;;;;;;32.10;21.73;;;;;;;6.74;93.88;101776.27;1775162;80;21130;-84
2021/10/24 09:21:23;;;;;;;31.55;20.05;;;;;;;6.92;93.21;101773.50;1757067;81;20989;-84
2021/10/24 09:23:54;;;;;;;30.45;16.93;;;;;;;7.04;91.95;101774.82;1776887;80;21056;-85
2021/10/24 09:26:26;;;;;;;32.70;16.97;;;;;;;7.20;91.45;101771.20;1740686;80;20998;-85
2021/10/24 09:29:06;;;;;;;25.37;17.57;;;;;;;7.31;91.41;101773.02;1765962;80;21091;-85
2021/10/24 09:31:41;;;;;;;32.03;18.65;;;;;;;7.46;91.08;101774.20;1751408;80;20999;-84
2021/10/24 09:34:20;;;;;;;26.60;15.98;;;;;;;7.61;90.62;101772.80;1746410;82;20989;-84
2021/10/24 09:36:58;;;;;;;24.12;12.95;;;;;;;7.75;90.50;101773.13;1765885;80;21622;-85
2021/10/24 09:39:35;;;;;;;22.58;14.40;;;;;;;7.90;90.46;101770.39;1778204;81;21049;-85
2021/10/24 09:42:22;;;;;;;18.62;10.35;;;;;;;8.04;89.12;101770.70;1724608;81;21025;-85
2021/10/24 09:45:14;;;;;;;18.57;9.48;;;;;;;8.14;88.76;101764.63;1714295;81;21540;-85
2021/10/24 09:47:48;;;;;;;21.57;8.40;;;;;;;8.32;89.61;101767.82;1685805;83;21021;-85
2021/10/24 09:50:39;;;;;;;19.35;8.60;;;;;;;8.47;87.68;101759.81;1750368;80;21028;-85
2021/10/24 09:53:13;;;;;;;16.93;9.65;;;;;;;8.54;87.76;101763.90;1753291;80;21573;-85
2021/10/24 09:55:42;;;;;;;19.57;10.32;;;;;;;8.67;87.40;101764.25;1753895;80;21023;-84
2021/10/24 09:58:13;;;;;;;16.87;10.10;;;;;;;8.77;87.25;101764.72;1712922;81;21083;-84
2021/10/24 10:00:41;;;;;;;21.65;11.45;;;;;;;8.90;86.91;101760.18;1723220;81;21033;-85
2021/10/24 10:03:07;;;;;;;22.22;10.10;;;;;;;9.03;86.76;101756.56;1755071;80;20992;-85
2021/10/24 10:05:36;;;;;;;19.40;9.15;;;;;;;9.13;85.78;101754.39;1751030;81;20985;-85
2021/10/24 10:08:03;;;;;;;19.12;8.68;;;;;;;9.23;85.45;101754.84;1762687;80;21001;-85
2021/10/24 10:10:31;;;;;;;15.00;9.20;;;;;;;9.33;85.77;101757.45;1759034;80;20983;-85
2021/10/24 10:13:01;;;;;;;16.85;10.98;;;;;;;9.40;85.13;101755.78;1764874;80;21471;-85
2021/10/24 10:15:35;;;;;;;17.30;9.20;;;;;;;9.49;85.36;101752.36;1707417;84;20970;-84
2021/10/24 10:18:02;;;;;;;18.52;11.08;;;;;;;9.59;85.30;101754.49;1752505;80;21049;-85
2021/10/24 10:20:30;;;;;;;13.13;7.45;;;;;;;9.72;85.38;101740.29;1695075;84;21045;-85
2021/10/24 10:23:01;;;;;;;10.53;6.12;;;;;;;9.86;84.42;101745.76;1759129;80;21468;-84
2021/10/24 10:25:28;;;;;;;17.05;7.97;;;;;;;9.94;83.62;101744.57;1762479;80;20958;-84
2021/10/24 10:27:55;;;;;;;13.93;6.65;;;;;;;10.05;84.37;101743.11;1760383;80;21527;-85
2021/10/24 10:30:40;;;;;;;15.15;5.22;;;;;;;10.21;84.42;101734.47;1757896;80;21033;-85
2021/10/24 10:33:32;;;;;;;12.10;5.70;;;;;;;10.35;83.25;101734.67;1759611;80;21014;-86
2021/10/24 10:36:00;;;;;;;10.48;4.58;;;;;;;10.40;82.05;101738.39;1755226;81;20973;-85
2021/10/24 10:38:36;;;;;;;11.60;5.50;;;;;;;10.39;81.38;101734.05;1751986;80;20946;-85
2021/10/24 10:41:04;;;;;;;9.78;4.08;;;;;;;10.40;80.99;101731.79;1755215;81;20990;-86
2021/10/24 10:43:32;;;;;;;10.35;4.12;;;;;;;10.44;81.58;101732.05;1751453;80;21558;-85
2021/10/24 10:46:04;;;;;;;8.25;4.12;;;;;;;10.49;81.33;101726.06;1783451;80;21005;-85
2021/10/24 10:48:46;;;;;;;10.55;3.87;;;;;;;10.51;80.45;101729.02;1770985;80;20954;-85
2021/10/24 10:51:25;;;;;;;8.05;3.67;;;;;;;10.48;80.25;101717.77;1761476;80;20998;-85
2021/10/24 10:54:01;;;;;;;12.28;4.03;;;;;;;10.51;80.03;101724.22;1763698;81;21030;-84
2021/10/24 10:56:34;;;;;;;17.98;8.58;;;;;;;10.57;80.14;101718.63;1754119;80;21043;-85
2021/10/24 10:59:07;;;;;;;12.55;3.90;;;;;;;10.65;79.70;101712.48;1745584;82;21523;-85
2021/10/24 11:01:41;;;;;;;7.72;3.47;;;;;;;10.74;79.01;101715.98;1764858;81;20961;-85
2021/10/24 11:04:15;;;;;;;8.80;3.75;;;;;;;10.84;79.16;101716.83;1770441;80;21079;-85
2021/10/24 11:06:52;;;;;;;6.17;3.37;;;;;;;10.93;78.49;101712.41;1747757;80;21003;-84
2021/10/24 11:09:46;;;;;;;14.38;4.83;;;;;;;11.02;78.16;101707.93;1762162;80;20977;-85
2021/10/24 11:12:37;;;;;;;11.38;4.42;;;;;;;11.06;77.78;101710.83;1745476;80;20975;-84
2021/10/24 11:15:07;;;;;;;9.20;4.78;;;;;;;11.15;77.67;101716.92;1757893;80;21005;-85
2021/10/24 11:17:44;;;;;;;8.03;3.52;;;;;;;11.27;77.28;101714.10;1762116;81;21479;-86
2021/10/24 11:20:20;;;;;;;7.70;3.00;;;;;;;11.32;76.55;101714.72;1702973;82;21037;-85
2021/10/24 11:23:01;;;;;;;8.90;4.15;;;;;;;11.36;75.75;101708.33;1759563;81;21016;-86
2021/10/24 11:25:34;;;;;;;12.53;5.53;;;;;;;11.36;75.24;101710.97;1758255;80;20981;-86